Αρχική σελίδα
METAR-TAF:

METAR-TAF

Αεροδρόμια :

Δαμασκός, Συρία

γεωγραφικό πλάτος: 33-25N, γεωγραφικό μήκος: 036-31E, υψόμετρο: 608 μ

Παρών καιρός

Η αναφορά έγινε 59 λεπτά πριν, στις 01:00 UTC
Άνεμος 4 kt από Β
Θερμοκρασία
Πίεση 1018 hPa
Ορατότητα: 4000 μ

METAR: OSDI 220100Z 35004KT 4000 BR13/10 Q1018

Χρόνος: 04:59 (01:59 UTC)

Πρόγνωση Καιρού

Η πρόγνωση ισχύει από τις 22 στις 00 UTC έως τις 23 στις 06 UTC
Άνεμος 3 kt από μεταβλητές κατευθύνσεις
Ορατότητα: 3000 μ
Αχλής
Προσωρινά
από 22 στις 01 UTC έως τις 22 στις 06 UTC
Ορατότητα: 0200 μ
Διάσπαρτα νέφη σε ύψος 700 πόδια
ομίχλη
Καθιστάμενος
από 22 στις 06 UTC έως τις 22 στις 08 UTC
Άνεμος 10 kt από ΝΔ
Ορατότητα: 8000 μ
Λίγα νέφη σε ύψος 3000 πόδια

TAF: OSDI 2200/2306 VRB03KT 3000 BR TEMPO 2201/2206 0200 FG SCT007 BECMG 2206/2208 22010KT 8000 FEW030

Μετεωρολογικές αναφορές και προγνώσεις για περισσότερα από 4000 αεροδρόμια (δελτία METAR και TAF).

Οι διαθέσιμοι σταθμοί απεικονίζονται στο χάρτη με κίτρινες και κόκκινες κουκκίδες.

Μετακινήστε το ποντίκι πάνω από τις κουκκίδες για να δείτε το όνομα του σταθμού.

Στη συνέχεια, κάντε κλικ για να δείτε τις μετεωρολογικές αναφορές και τις προγνώσεις καιρού.

Για να αλλάξετε το χάρτη: κάντε κλικ στα πράσινα κουμπιά με τον μαύρο σταυρό για να ζουμάρετε, στο πράσινο κουμπί με την παύλα για να αφαιρέσετε το ζουμ ή στα πράσινα βέλη για να αντιπαραβάλλετε χάρτες.


METAR-TAF: